New York, New York
Current Conditions -  °F | °C
As of 1:51 AM on Thursday 23 Oct 2014 (Local Time) from KNYC Reporting Station
Overcast Overcast  
Wind Chill: 52°   Ceiling: 2000
Heat Index: 52°   Visibility: 10mi
Dew Point: 46°   Wind: 8mph
Humidity: 80%   Direction: 20°NNE
Pressure: 29.75"   Gusts: 23mph
Location:  40.71°N, 74.01°W
Report Text: KNYC 230551Z AUTO 02007G20KT 320V060 10SM OVC020 11/08 A2975 RMK AO2 SLP063 60044 T01110078 10111 20100 56009 $
Loading
Personal Weather Stations






























Interactive Weather Map
Tropical Storm Tracking
New forecast layout! Learn more

10-Day Weather Forecast

Advertisements
Track Severe Weather on mobile